createdAt,value
2019-03-11T00:01:56.429Z,63.50
2019-03-11T00:04:25.659Z,64.20
2019-03-11T00:06:55.723Z,62.70
2019-03-11T00:09:23.486Z,62.10
2019-03-11T00:11:52.994Z,61.90
2019-03-11T00:14:21.876Z,61.10
2019-03-11T00:16:50.591Z,61.20
2019-03-11T00:19:18.597Z,62.10
2019-03-11T00:21:46.901Z,60.50
2019-03-11T00:24:15.489Z,60.10
2019-03-11T00:26:44.309Z,60.60
2019-03-11T00:29:12.573Z,61.00
2019-03-11T00:31:41.099Z,61.00
2019-03-11T00:34:08.980Z,61.30
2019-03-11T00:36:37.448Z,61.20
2019-03-11T00:39:06.691Z,60.80
2019-03-11T00:41:36.275Z,60.50
2019-03-11T00:44:05.619Z,61.20
2019-03-11T00:46:34.291Z,62.00
2019-03-11T00:49:02.866Z,61.20
2019-03-11T00:51:32.579Z,62.10
2019-03-11T00:54:00.557Z,61.90
2019-03-11T00:56:28.719Z,60.70
2019-03-11T00:58:57.718Z,60.00
2019-03-11T01:01:27.604Z,60.50
2019-03-11T01:03:56.202Z,60.80
2019-03-11T01:06:25.077Z,61.10
2019-03-11T01:08:54.165Z,60.60
2019-03-11T01:11:22.496Z,60.60
2019-03-11T01:13:51.446Z,60.80
2019-03-11T01:16:19.924Z,60.80
2019-03-11T01:18:47.806Z,60.20
2019-03-11T01:21:17.198Z,60.80
2019-03-11T01:23:46.479Z,61.20
2019-03-11T01:26:15.228Z,60.10
2019-03-11T01:28:44.113Z,60.30
2019-03-11T01:31:13.064Z,60.00
2019-03-11T01:33:43.944Z,60.90
2019-03-11T01:36:12.777Z,60.20
2019-03-11T01:38:41.078Z,60.00
2019-03-11T01:41:09.508Z,59.60
2019-03-11T01:43:37.167Z,60.10
2019-03-11T01:46:05.295Z,59.90
2019-03-11T01:48:33.719Z,59.40
2019-03-11T01:51:03.143Z,59.70
2019-03-11T01:53:31.643Z,59.00
2019-03-11T01:56:00.574Z,58.90
2019-03-11T01:58:29.556Z,59.30
2019-03-11T02:00:57.449Z,59.30
2019-03-11T02:03:24.848Z,58.10
2019-03-11T02:05:53.117Z,59.10
2019-03-11T02:08:20.788Z,58.70
2019-03-11T02:10:49.849Z,58.00
2019-03-11T02:13:18.502Z,57.60
2019-03-11T02:15:47.012Z,57.70
2019-03-11T02:18:15.798Z,57.10
2019-03-11T02:20:43.920Z,59.00
2019-03-11T02:23:13.146Z,57.30
2019-03-11T02:25:41.868Z,58.00
2019-03-11T02:28:09.887Z,58.10
2019-03-11T02:30:38.677Z,58.10
2019-03-11T02:33:06.154Z,58.40
2019-03-11T02:35:33.805Z,59.50
2019-03-11T02:38:02.882Z,60.00
2019-03-11T02:40:31.088Z,60.50
2019-03-11T02:43:00.271Z,61.50
2019-03-11T02:45:29.958Z,61.60
2019-03-11T02:47:58.109Z,61.80
2019-03-11T02:50:27.371Z,62.50
2019-03-11T02:52:56.135Z,62.80
2019-03-11T02:55:24.955Z,63.10
2019-03-11T02:57:52.755Z,62.60
2019-03-11T03:00:22.061Z,62.70
2019-03-11T03:03:00.071Z,63.10
2019-03-11T03:05:49.636Z,63.70
2019-03-11T03:08:18.578Z,64.10
2019-03-11T03:10:47.303Z,64.70
2019-03-11T03:13:15.632Z,64.90
2019-03-11T03:15:45.704Z,65.00
2019-03-11T03:18:13.017Z,64.30
2019-03-11T03:20:41.980Z,64.20
2019-03-11T03:23:11.307Z,63.80
2019-03-11T03:25:40.401Z,64.00
2019-03-11T03:28:09.460Z,64.30
2019-03-11T03:30:40.391Z,64.90
2019-03-11T03:33:09.917Z,64.80
2019-03-11T03:35:38.569Z,64.60
2019-03-11T03:38:07.489Z,64.90
2019-03-11T03:40:36.105Z,65.20
2019-03-11T03:43:05.488Z,66.20
2019-03-11T03:45:39.481Z,67.20
2019-03-11T03:48:07.939Z,68.10
2019-03-11T03:50:37.178Z,68.50
2019-03-11T03:53:06.571Z,67.80
2019-03-11T03:55:35.022Z,67.80
2019-03-11T03:58:04.128Z,68.40
2019-03-11T04:00:33.462Z,68.90
2019-03-11T04:03:03.169Z,69.50
2019-03-11T04:05:31.561Z,69.60
2019-03-11T04:08:00.457Z,69.40
2019-03-11T04:10:32.216Z,69.70
2019-03-11T04:12:59.159Z,69.70
2019-03-11T04:15:27.651Z,69.40
2019-03-11T04:17:57.052Z,69.80
2019-03-11T04:20:26.056Z,69.40
2019-03-11T04:22:54.406Z,69.60
2019-03-11T04:25:23.231Z,69.70
2019-03-11T04:27:52.065Z,69.10
2019-03-11T04:30:21.717Z,69.40
2019-03-11T04:32:49.623Z,69.10
2019-03-11T04:35:19.321Z,69.60
2019-03-11T04:37:47.266Z,70.30
2019-03-11T04:40:15.210Z,70.30
2019-03-11T04:42:43.594Z,70.80
2019-03-11T04:45:13.378Z,71.60
2019-03-11T04:47:41.260Z,72.30
2019-03-11T04:50:11.696Z,72.70
2019-03-11T04:52:39.723Z,73.10
2019-03-11T04:55:08.716Z,73.30
2019-03-11T04:57:42.395Z,73.70
2019-03-11T05:00:13.334Z,73.80
2019-03-11T05:02:41.867Z,74.40
2019-03-11T05:05:10.829Z,74.80
2019-03-11T05:07:38.985Z,74.30
2019-03-11T05:10:08.416Z,74.30
2019-03-11T05:12:37.345Z,74.50
2019-03-11T05:15:05.589Z,74.40
2019-03-11T05:17:34.346Z,73.60
2019-03-11T05:20:04.838Z,74.00
2019-03-11T05:22:33.895Z,74.20
2019-03-11T05:25:01.378Z,74.20
2019-03-11T05:27:29.232Z,74.20
2019-03-11T05:29:58.365Z,73.70
2019-03-11T05:32:27.392Z,73.80
2019-03-11T05:34:56.825Z,73.70
2019-03-11T05:37:24.510Z,73.40
2019-03-11T05:39:53.057Z,73.70
2019-03-11T05:42:21.649Z,73.10
2019-03-11T05:44:50.747Z,73.30
2019-03-11T05:47:19.536Z,72.70
2019-03-11T05:49:47.620Z,72.20
2019-03-11T05:52:16.431Z,71.80
2019-03-11T05:54:45.037Z,72.50
2019-03-11T05:57:12.947Z,75.00
2019-03-11T05:59:41.142Z,77.60
2019-03-11T06:02:09.381Z,80.70
2019-03-11T06:04:37.347Z,82.40
2019-03-11T06:07:07.523Z,83.30
2019-03-11T06:09:35.499Z,84.30
2019-03-11T06:12:03.998Z,86.30
2019-03-11T06:14:32.114Z,88.50
2019-03-11T06:16:59.871Z,88.20
2019-03-11T06:19:28.947Z,87.60
2019-03-11T06:22:19.076Z,87.00
2019-03-11T06:24:47.247Z,87.10
2019-03-11T06:27:16.037Z,85.70
2019-03-11T06:29:44.146Z,87.30
2019-03-11T06:32:12.039Z,87.40
2019-03-11T06:34:40.232Z,86.20
2019-03-11T06:37:09.216Z,86.60
2019-03-11T06:39:37.593Z,87.80
2019-03-11T06:42:06.172Z,88.80
2019-03-11T06:44:34.403Z,89.90
2019-03-11T06:47:02.753Z,90.00
2019-03-11T06:49:31.256Z,89.50
2019-03-11T06:51:59.720Z,88.10
2019-03-11T06:54:28.968Z,87.00
2019-03-11T06:56:58.463Z,87.00
2019-03-11T06:59:26.549Z,88.50
2019-03-11T07:01:55.530Z,85.90
2019-03-11T07:04:23.577Z,85.60
2019-03-11T07:06:51.323Z,84.50
2019-03-11T07:09:18.734Z,85.00
2019-03-11T07:11:46.091Z,85.80
2019-03-11T07:14:14.196Z,86.80
2019-03-11T07:16:41.886Z,86.30
2019-03-11T07:19:10.216Z,84.30
2019-03-11T07:21:37.830Z,84.20
2019-03-11T07:24:06.253Z,85.90
2019-03-11T07:26:34.250Z,84.00
2019-03-11T07:29:02.090Z,82.60
2019-03-11T07:31:30.769Z,82.00
2019-03-11T07:33:59.435Z,82.20
2019-03-11T07:36:29.301Z,81.50
2019-03-11T07:38:57.117Z,82.00
2019-03-11T07:41:24.658Z,81.80
2019-03-11T07:43:52.956Z,80.40
2019-03-11T07:46:20.926Z,80.50
2019-03-11T07:48:49.250Z,80.10
2019-03-11T07:51:17.475Z,79.90
2019-03-11T07:53:45.085Z,78.80
2019-03-11T07:56:14.203Z,78.30
2019-03-11T07:58:41.587Z,78.50
2019-03-11T08:01:09.325Z,76.60
2019-03-11T08:03:37.764Z,76.30
2019-03-11T08:06:05.387Z,75.40
2019-03-11T08:08:33.195Z,75.30
2019-03-11T08:11:01.731Z,75.40
2019-03-11T08:13:29.096Z,74.00
2019-03-11T08:15:57.068Z,74.70
2019-03-11T08:18:34.516Z,72.80
2019-03-11T08:20:54.229Z,71.50
2019-03-11T08:23:22.020Z,72.00
2019-03-11T08:25:50.241Z,70.40
2019-03-11T08:28:17.728Z,71.50
2019-03-11T08:30:45.949Z,72.20
2019-03-11T08:33:13.937Z,72.00
2019-03-11T08:35:42.882Z,71.90
2019-03-11T08:38:11.123Z,72.80
2019-03-11T08:40:39.383Z,70.50
2019-03-11T08:43:07.699Z,70.70
2019-03-11T08:45:35.391Z,70.30
2019-03-11T08:48:03.370Z,71.10
2019-03-11T08:50:32.573Z,72.30
2019-03-11T08:53:00.384Z,71.20
2019-03-11T08:55:29.601Z,71.50
2019-03-11T08:57:57.373Z,70.80
2019-03-11T09:00:25.478Z,70.30
2019-03-11T09:02:54.203Z,70.70
2019-03-11T09:05:22.785Z,69.80
2019-03-11T09:07:50.880Z,69.60
2019-03-11T09:10:19.504Z,68.90
2019-03-11T09:12:47.228Z,69.70
2019-03-11T09:15:15.024Z,69.70
2019-03-11T09:17:42.698Z,69.30
2019-03-11T09:20:12.736Z,68.80
2019-03-11T09:22:44.011Z,67.80
2019-03-11T09:25:16.309Z,69.00
2019-03-11T09:27:44.176Z,68.80
2019-03-11T09:30:14.453Z,69.00
2019-03-11T09:32:41.809Z,67.70
2019-03-11T09:35:10.736Z,67.50
2019-03-11T09:37:38.668Z,66.90
2019-03-11T09:40:07.559Z,65.40
2019-03-11T09:42:35.609Z,66.90
2019-03-11T09:45:04.555Z,67.00
2019-03-11T09:47:33.527Z,65.70
2019-03-11T09:50:01.785Z,65.50
2019-03-11T09:52:30.353Z,62.30
2019-03-11T09:54:59.969Z,58.40
2019-03-11T09:57:28.437Z,57.80
2019-03-11T09:59:56.678Z,56.20
2019-03-11T10:02:24.125Z,56.50
2019-03-11T10:04:51.538Z,53.90
2019-03-11T10:07:19.649Z,51.70
2019-03-11T10:09:48.856Z,53.00
2019-03-11T10:12:16.778Z,54.60
2019-03-11T10:14:44.814Z,55.00
2019-03-11T10:17:12.343Z,55.90
2019-03-11T10:19:41.459Z,55.40
2019-03-11T10:22:10.872Z,51.90
2019-03-11T10:24:38.602Z,49.70
2019-03-11T10:27:06.614Z,50.70
2019-03-11T10:29:35.232Z,52.20
2019-03-11T10:32:03.062Z,51.90
2019-03-11T10:34:31.724Z,52.50
2019-03-11T10:37:00.753Z,54.10
2019-03-11T10:39:28.902Z,54.90
2019-03-11T10:41:56.699Z,54.80
2019-03-11T10:44:24.100Z,53.60
2019-03-11T10:46:51.686Z,53.70
2019-03-11T10:49:19.136Z,55.60
2019-03-11T10:51:47.396Z,54.40
2019-03-11T10:54:15.564Z,53.30
2019-03-11T10:56:42.966Z,54.90
2019-03-11T10:59:10.837Z,55.50
2019-03-11T11:01:39.066Z,56.10
2019-03-11T11:04:07.210Z,56.70
2019-03-11T11:06:35.255Z,55.90
2019-03-11T11:09:06.772Z,55.20
2019-03-11T11:11:36.397Z,54.30
2019-03-11T11:14:04.313Z,53.60
2019-03-11T11:16:32.371Z,55.40
2019-03-11T11:18:59.786Z,55.20
2019-03-11T11:21:28.219Z,54.70
2019-03-11T11:23:57.377Z,54.20
2019-03-11T11:26:24.722Z,53.90
2019-03-11T11:28:52.574Z,53.00
2019-03-11T11:31:22.323Z,53.60
2019-03-11T11:33:50.011Z,54.20
2019-03-11T11:36:17.462Z,54.60
2019-03-11T11:38:46.404Z,54.60
2019-03-11T11:41:16.822Z,53.50
2019-03-11T11:43:46.690Z,53.10
2019-03-11T11:46:16.870Z,54.20
2019-03-11T11:48:45.021Z,55.00
2019-03-11T11:51:12.850Z,53.30
2019-03-11T11:53:40.988Z,53.90
2019-03-11T11:56:10.002Z,54.10
2019-03-11T11:58:40.629Z,54.50
2019-03-11T12:01:07.946Z,54.80
2019-03-11T12:03:36.409Z,55.70
2019-03-11T12:06:04.995Z,55.80
2019-03-11T12:08:34.690Z,54.90
2019-03-11T12:11:03.985Z,55.60
2019-03-11T12:13:34.749Z,54.50
2019-03-11T12:16:04.375Z,54.90
2019-03-11T12:18:33.974Z,55.10
2019-03-11T12:21:02.583Z,56.30
2019-03-11T12:23:30.884Z,55.80
2019-03-11T12:26:05.092Z,54.60
2019-03-11T12:28:33.759Z,54.60
2019-03-11T12:31:04.193Z,55.30
2019-03-11T12:33:31.969Z,54.80
2019-03-11T12:36:00.735Z,55.10
2019-03-11T12:38:28.947Z,55.00
2019-03-11T12:40:57.064Z,53.30
2019-03-11T12:43:25.104Z,53.50
2019-03-11T12:45:55.150Z,52.70
2019-03-11T12:48:24.908Z,52.00
2019-03-11T12:50:53.978Z,52.90
2019-03-11T12:53:21.903Z,52.60
2019-03-11T12:55:51.672Z,54.10
2019-03-11T12:58:20.586Z,52.90
2019-03-11T13:00:49.619Z,52.30
2019-03-11T13:03:20.191Z,52.60
2019-03-11T13:05:49.498Z,52.30
2019-03-11T13:08:17.956Z,52.20
2019-03-11T13:10:46.166Z,51.80
2019-03-11T13:13:14.678Z,50.30
2019-03-11T13:15:42.161Z,50.10
2019-03-11T13:18:33.239Z,50.20
2019-03-11T13:21:10.397Z,47.50
2019-03-11T13:23:41.324Z,44.90
2019-03-11T13:26:08.592Z,42.50
2019-03-11T13:28:36.569Z,43.40
2019-03-11T13:31:05.539Z,43.90
2019-03-11T13:33:33.661Z,46.80
2019-03-11T13:36:01.471Z,48.20
2019-03-11T13:38:30.107Z,48.50
2019-03-11T13:40:57.934Z,49.60
2019-03-11T13:43:26.790Z,51.10
2019-03-11T13:45:56.106Z,50.30
2019-03-11T13:48:23.812Z,49.50
2019-03-11T13:50:51.999Z,50.10
2019-03-11T13:53:20.294Z,49.50
2019-03-11T13:55:49.875Z,49.00
2019-03-11T13:58:18.910Z,49.10
2019-03-11T14:00:56.378Z,49.40
2019-03-11T14:03:18.547Z,47.90
2019-03-11T14:05:48.294Z,45.90
2019-03-11T14:08:15.828Z,43.30
2019-03-11T14:10:44.253Z,43.00
2019-03-11T14:13:18.238Z,42.30
2019-03-11T14:15:46.432Z,41.50
2019-03-11T14:18:15.855Z,41.90
2019-03-11T14:20:43.920Z,43.10
2019-03-11T14:23:11.769Z,44.30
2019-03-11T14:25:40.268Z,45.00
2019-03-11T14:28:08.475Z,45.50
2019-03-11T14:30:37.209Z,47.10
2019-03-11T14:33:07.011Z,47.00
2019-03-11T14:35:35.485Z,47.60
2019-03-11T14:38:04.832Z,47.30
2019-03-11T14:40:33.825Z,46.20
2019-03-11T14:43:02.760Z,44.20
2019-03-11T14:45:30.834Z,45.60
2019-03-11T14:48:02.707Z,46.20
2019-03-11T14:50:31.948Z,46.30
2019-03-11T14:53:01.241Z,47.30
2019-03-11T14:55:33.212Z,48.80
2019-03-11T14:58:04.557Z,49.70
2019-03-11T15:00:34.829Z,50.40
2019-03-11T15:03:04.444Z,50.90
2019-03-11T15:05:36.612Z,52.30
2019-03-11T15:08:05.580Z,51.70
2019-03-11T15:10:33.519Z,51.40
2019-03-11T15:13:02.100Z,50.30
2019-03-11T15:15:30.259Z,48.10
2019-03-11T15:18:00.644Z,47.40
2019-03-11T15:20:28.132Z,47.30
2019-03-11T15:23:05.944Z,46.60
2019-03-11T15:25:27.499Z,44.90
2019-03-11T15:27:55.159Z,45.30
2019-03-11T15:30:28.819Z,46.00
2019-03-11T15:32:57.813Z,48.00
2019-03-11T15:35:27.279Z,48.00
2019-03-11T15:37:55.529Z,50.30
2019-03-11T15:40:23.322Z,51.10
2019-03-11T15:42:50.879Z,52.30
2019-03-11T15:45:19.746Z,53.70
2019-03-11T15:47:48.897Z,55.00
2019-03-11T15:50:20.787Z,54.50
2019-03-11T15:52:49.720Z,54.10
2019-03-11T15:55:18.656Z,54.90
2019-03-11T15:57:48.464Z,55.50
2019-03-11T16:00:19.303Z,57.20
2019-03-11T16:02:50.106Z,58.70
2019-03-11T16:05:20.008Z,58.80
2019-03-11T16:07:50.739Z,59.80
2019-03-11T16:10:21.755Z,64.50
2019-03-11T16:12:49.303Z,67.50
2019-03-11T16:15:18.460Z,68.50
2019-03-11T16:17:46.649Z,68.50
2019-03-11T16:20:15.960Z,68.50
2019-03-11T16:22:44.605Z,68.10
2019-03-11T16:25:12.828Z,66.60
2019-03-11T16:27:41.504Z,67.10
2019-03-11T16:30:12.380Z,66.30
2019-03-11T16:32:57.200Z,65.80
2019-03-11T16:35:10.551Z,64.10
2019-03-11T16:37:38.724Z,64.00
2019-03-11T16:40:07.949Z,63.30
2019-03-11T16:42:36.828Z,63.10
2019-03-11T16:45:05.641Z,62.00
2019-03-11T16:47:36.739Z,61.90
2019-03-11T16:50:06.167Z,61.50
2019-03-11T16:52:34.295Z,62.30
2019-03-11T16:55:03.628Z,64.40
2019-03-11T16:57:32.651Z,65.30
2019-03-11T17:00:01.942Z,67.60
2019-03-11T17:02:29.357Z,68.20
2019-03-11T17:04:58.473Z,68.70
2019-03-11T17:07:26.420Z,68.60
2019-03-11T17:09:54.429Z,69.10
2019-03-11T17:12:22.232Z,68.10
2019-03-11T17:14:54.532Z,68.10
2019-03-11T17:17:27.503Z,68.70
2019-03-11T17:19:55.536Z,72.50
2019-03-11T17:22:24.595Z,74.30
2019-03-11T17:24:53.228Z,75.40
2019-03-11T17:27:23.420Z,75.10
2019-03-11T17:29:52.296Z,74.30
2019-03-11T17:32:20.923Z,75.90
2019-03-11T17:34:52.829Z,77.40
2019-03-11T17:37:22.464Z,78.10
2019-03-11T17:39:51.360Z,78.30
2019-03-11T17:42:18.799Z,78.30
2019-03-11T17:44:47.786Z,79.40
2019-03-11T17:47:15.955Z,80.70
2019-03-11T17:49:44.656Z,81.20
2019-03-11T17:52:13.237Z,81.40
2019-03-11T17:54:41.777Z,80.70
2019-03-11T17:57:09.848Z,80.70
2019-03-11T17:59:38.976Z,80.90
2019-03-11T18:02:06.802Z,81.20
2019-03-11T18:04:35.715Z,80.80
2019-03-11T18:07:03.923Z,80.40
2019-03-11T18:09:31.715Z,80.50
2019-03-11T18:12:00.182Z,80.90
2019-03-11T18:14:28.940Z,80.80
2019-03-11T18:16:57.600Z,80.40
2019-03-11T18:19:26.424Z,81.20
2019-03-11T18:21:54.027Z,81.20
2019-03-11T18:24:23.600Z,81.60
2019-03-11T18:26:52.217Z,82.50
2019-03-11T18:29:20.351Z,81.90
2019-03-11T18:31:49.065Z,81.20
2019-03-11T18:34:18.430Z,80.50
2019-03-11T18:36:47.384Z,80.10
2019-03-11T18:39:19.338Z,78.20
2019-03-11T18:41:47.057Z,78.10
2019-03-11T18:44:17.129Z,78.10
2019-03-11T18:46:48.021Z,78.80
2019-03-11T18:49:15.953Z,78.40
2019-03-11T18:51:43.776Z,78.30
2019-03-11T18:54:12.095Z,78.00
2019-03-11T18:56:41.138Z,77.20
2019-03-11T18:59:09.695Z,77.00
2019-03-11T19:01:39.185Z,77.30
2019-03-11T19:04:08.324Z,77.10
2019-03-11T19:06:37.142Z,78.70
2019-03-11T19:09:07.055Z,79.40
2019-03-11T19:11:35.556Z,78.60
2019-03-11T19:14:03.251Z,78.40
2019-03-11T19:16:31.887Z,79.20
2019-03-11T19:18:59.825Z,79.60
2019-03-11T19:21:28.484Z,79.20
2019-03-11T19:23:58.016Z,79.00
2019-03-11T19:26:26.053Z,79.10
2019-03-11T19:28:54.983Z,78.80
2019-03-11T19:31:23.939Z,79.20
2019-03-11T19:33:53.635Z,78.30
2019-03-11T19:36:21.964Z,78.50
2019-03-11T19:38:51.011Z,78.10
2019-03-11T19:41:18.796Z,78.00
2019-03-11T19:43:46.932Z,78.60
2019-03-11T19:46:15.281Z,78.60
2019-03-11T19:48:44.552Z,79.50
2019-03-11T19:51:13.507Z,79.30
2019-03-11T19:53:42.048Z,79.60
2019-03-11T19:56:11.641Z,79.70
2019-03-11T19:58:40.778Z,79.40
2019-03-11T20:01:11.685Z,78.90
2019-03-11T20:03:43.659Z,78.40
2019-03-11T20:06:12.730Z,77.80
2019-03-11T20:08:46.264Z,76.80
2019-03-11T20:11:15.595Z,75.90
2019-03-11T20:13:44.096Z,76.00
2019-03-11T20:16:13.035Z,75.90
2019-03-11T20:18:41.384Z,76.20
2019-03-11T20:21:09.877Z,76.00
2019-03-11T20:23:38.639Z,75.70
2019-03-11T20:26:07.401Z,76.00
2019-03-11T20:28:35.880Z,76.80
2019-03-11T20:31:04.463Z,77.20
2019-03-11T20:33:32.026Z,77.40
2019-03-11T20:36:01.578Z,77.60
2019-03-11T20:38:30.437Z,77.50
2019-03-11T20:40:59.232Z,77.60
2019-03-11T20:43:28.999Z,78.00
2019-03-11T20:45:58.210Z,77.60
2019-03-11T20:48:26.307Z,77.10
2019-03-11T20:50:55.512Z,76.80
2019-03-11T20:53:23.929Z,76.80
2019-03-11T20:55:52.571Z,76.20
2019-03-11T20:58:22.020Z,76.40
2019-03-11T21:00:50.580Z,77.00
2019-03-11T21:03:18.490Z,77.50
2019-03-11T21:05:46.325Z,77.40
2019-03-11T21:08:14.262Z,78.20
2019-03-11T21:10:42.661Z,77.40
2019-03-11T21:13:10.403Z,77.50
2019-03-11T21:15:38.486Z,78.70
2019-03-11T21:18:06.133Z,79.20
2019-03-11T21:20:34.051Z,78.70
2019-03-11T21:23:02.407Z,78.20
2019-03-11T21:25:31.281Z,78.90
2019-03-11T21:27:59.756Z,78.00
2019-03-11T21:30:27.597Z,78.10
2019-03-11T21:32:55.786Z,78.30
2019-03-11T21:35:23.807Z,78.90
2019-03-11T21:37:52.247Z,78.30
2019-03-11T21:40:21.447Z,78.90
2019-03-11T21:42:52.599Z,78.70
2019-03-11T21:45:33.037Z,77.80
2019-03-11T21:47:51.802Z,77.80
2019-03-11T21:50:21.930Z,78.50
2019-03-11T21:52:51.088Z,78.60
2019-03-11T21:55:20.777Z,79.50
2019-03-11T21:57:48.641Z,79.30
2019-03-11T22:00:28.424Z,79.20
2019-03-11T22:02:49.149Z,79.60
2019-03-11T22:05:17.111Z,80.10
2019-03-11T22:07:45.893Z,80.30
2019-03-11T22:10:14.192Z,80.30
2019-03-11T22:12:42.074Z,80.90
2019-03-11T22:15:10.908Z,80.40
2019-03-11T22:17:39.273Z,79.50
2019-03-11T22:20:08.388Z,78.30
2019-03-11T22:22:37.257Z,78.80
2019-03-11T22:25:05.151Z,78.20
2019-03-11T22:27:33.877Z,78.20
2019-03-11T22:30:01.996Z,77.10
2019-03-11T22:32:30.786Z,76.90
2019-03-11T22:35:11.954Z,77.20
2019-03-11T22:37:30.368Z,77.40
2019-03-11T22:39:57.854Z,77.50
2019-03-11T22:42:26.003Z,77.20
2019-03-11T22:44:54.006Z,76.60
2019-03-11T22:47:22.137Z,75.50
2019-03-11T22:49:50.961Z,75.20
2019-03-11T22:52:19.018Z,75.20
2019-03-11T22:54:48.014Z,75.60
2019-03-11T22:57:16.576Z,74.90
2019-03-11T22:59:44.097Z,74.00
2019-03-11T23:02:13.886Z,73.70
2019-03-11T23:04:42.359Z,74.10
2019-03-11T23:07:10.745Z,74.40
2019-03-11T23:09:39.425Z,75.00
2019-03-11T23:12:07.441Z,75.10
2019-03-11T23:14:35.489Z,76.60
2019-03-11T23:17:03.908Z,77.40
2019-03-11T23:19:31.659Z,77.40
2019-03-11T23:21:59.382Z,76.70
2019-03-11T23:24:27.394Z,76.10
2019-03-11T23:26:56.108Z,75.20
2019-03-11T23:29:24.814Z,74.60
2019-03-11T23:31:52.803Z,74.30
2019-03-11T23:34:20.710Z,75.10
2019-03-11T23:36:48.904Z,74.80
2019-03-11T23:39:17.951Z,75.30
2019-03-11T23:41:47.546Z,75.40
2019-03-11T23:44:15.526Z,75.50
2019-03-11T23:46:44.649Z,75.00
2019-03-11T23:49:12.861Z,74.00
2019-03-11T23:51:41.418Z,73.60
2019-03-11T23:54:09.732Z,73.70
2019-03-11T23:56:37.444Z,74.20
2019-03-11T23:59:06.169Z,73.70
